createdAt,value
2023-04-12T00:46:38.371Z,2.25
2023-04-12T00:49:30.786Z,2.33
2023-04-12T00:52:18.013Z,2.13
2023-04-12T00:55:04.162Z,1.70
2023-04-12T00:57:49.414Z,1.40
2023-04-12T01:47:50.362Z,1.58
2023-04-12T01:50:47.766Z,2.08
2023-04-12T01:53:32.952Z,1.67
2023-04-12T01:56:19.447Z,1.88
2023-04-12T01:59:05.344Z,1.60
2023-04-12T02:46:10.514Z,2.33
2023-04-12T02:49:02.240Z,2.13
2023-04-12T02:51:55.133Z,1.73
2023-04-12T02:54:45.594Z,2.10
2023-04-12T02:57:34.625Z,1.52
2023-04-12T03:47:51.335Z,2.50
2023-04-12T03:50:44.670Z,2.38
2023-04-12T03:53:37.064Z,1.70
2023-04-12T03:56:22.315Z,2.03
2023-04-12T03:59:11.254Z,2.00
2023-04-12T04:47:36.588Z,2.13
2023-04-12T04:50:22.788Z,1.10
2023-04-12T04:53:09.768Z,1.65
2023-04-12T04:55:58.294Z,2.00
2023-04-12T04:58:48.880Z,1.95
2023-04-12T05:01:36.617Z,1.50
2023-04-12T05:04:22.739Z,1.98
2023-04-12T05:07:07.977Z,2.03
2023-04-12T05:09:53.366Z,1.40
2023-04-12T05:12:39.480Z,1.70
2023-04-12T05:15:24.717Z,2.17
2023-04-12T05:18:10.252Z,2.28
2023-04-12T05:20:55.492Z,1.85
2023-04-12T05:23:44.726Z,1.60
2023-04-12T05:26:31.390Z,1.98
2023-04-12T05:29:17.152Z,1.48
2023-04-12T05:32:03.147Z,1.70
2023-04-12T05:34:48.901Z,2.38
2023-04-12T05:37:34.042Z,1.90
2023-04-12T05:40:19.584Z,2.28
2023-04-12T05:43:08.497Z,1.52
2023-04-12T05:45:54.153Z,2.85
2023-04-12T05:48:41.977Z,1.80
2023-04-12T05:51:39.927Z,1.50
2023-04-12T05:54:29.025Z,1.52
2023-04-12T05:57:15.355Z,1.85
2023-04-12T06:00:00.741Z,1.70
2023-04-12T06:02:47.590Z,1.88
2023-04-12T06:05:33.947Z,2.07
2023-04-12T06:08:19.200Z,1.45
2023-04-12T06:11:04.910Z,1.60
2023-04-12T06:13:50.564Z,1.88
2023-04-12T06:16:36.340Z,2.10
2023-04-12T06:19:21.539Z,1.40
2023-04-12T06:22:08.944Z,2.38
2023-04-12T06:24:55.824Z,1.65
2023-04-12T06:27:42.755Z,1.08
2023-04-12T06:30:28.115Z,1.95
2023-04-12T06:33:13.586Z,1.80
2023-04-12T06:35:59.021Z,1.35
2023-04-12T06:38:44.151Z,1.67
2023-04-12T06:41:29.431Z,1.75
2023-04-12T06:44:19.249Z,1.65
2023-04-12T06:47:04.402Z,1.57
2023-04-12T06:49:54.750Z,1.55
2023-04-12T06:52:41.048Z,1.70
2023-04-12T06:55:28.941Z,1.85
2023-04-12T06:58:13.852Z,2.10
2023-04-12T07:01:06.439Z,1.77
2023-04-12T07:03:51.788Z,1.35
2023-04-12T07:06:36.964Z,2.13
2023-04-12T07:09:22.416Z,1.50
2023-04-12T07:12:07.720Z,1.73
2023-04-12T07:14:52.747Z,1.63
2023-04-12T07:17:37.777Z,2.10
2023-04-12T07:20:23.109Z,1.27
2023-04-12T07:23:08.226Z,1.60
2023-04-12T07:25:53.079Z,2.20
2023-04-12T07:28:39.037Z,1.57
2023-04-12T07:31:24.209Z,1.55
2023-04-12T07:34:09.847Z,1.92
2023-04-12T07:36:55.726Z,1.63
2023-04-12T07:39:41.339Z,1.90
2023-04-12T07:42:26.323Z,1.90
2023-04-12T07:45:11.174Z,1.52
2023-04-12T07:47:56.226Z,2.20
2023-04-12T07:50:41.433Z,1.73
2023-04-12T07:53:27.576Z,1.55
2023-04-12T07:56:12.646Z,1.23
2023-04-12T07:58:57.813Z,1.80
2023-04-12T08:01:43.059Z,1.38
2023-04-12T08:04:28.520Z,1.13
2023-04-12T08:07:13.669Z,2.03
2023-04-12T08:09:58.613Z,1.50
2023-04-12T08:12:43.303Z,1.77
2023-04-12T08:15:28.243Z,1.48
2023-04-12T08:18:13.829Z,1.38
2023-04-12T08:20:59.073Z,1.80
2023-04-12T08:23:43.932Z,1.70
2023-04-12T08:26:29.924Z,1.60
2023-04-12T08:29:15.522Z,1.40
2023-04-12T08:32:01.493Z,1.83
2023-04-12T08:34:46.772Z,1.10
2023-04-12T08:37:31.929Z,1.50
2023-04-12T08:40:17.256Z,1.45
2023-04-12T08:43:03.861Z,2.83
2023-04-12T08:45:49.402Z,1.60
2023-04-12T08:48:34.881Z,1.40
2023-04-12T08:51:21.228Z,1.30
2023-04-12T08:54:06.237Z,1.55
2023-04-12T08:56:53.115Z,1.73
2023-04-12T08:59:39.004Z,1.70
2023-04-12T09:02:24.698Z,1.70
2023-04-12T09:05:10.613Z,1.63
2023-04-12T09:07:56.954Z,1.75
2023-04-12T09:10:42.787Z,1.13
2023-04-12T09:13:35.428Z,1.85
2023-04-12T09:16:36.118Z,1.38
2023-04-12T09:19:31.468Z,1.20
2023-04-12T09:22:16.311Z,1.80
2023-04-12T09:25:01.684Z,1.30
2023-04-12T09:27:47.951Z,1.23
2023-04-12T09:30:41.520Z,2.65
2023-04-12T09:33:37.169Z,2.60
2023-04-12T09:36:22.592Z,1.92
2023-04-12T09:39:08.802Z,1.55
2023-04-12T09:42:04.180Z,1.50
2023-04-12T09:44:49.331Z,1.90
2023-04-12T09:47:39.166Z,1.80
2023-04-12T09:50:28.905Z,2.25
2023-04-12T09:53:18.289Z,1.60
2023-04-12T09:56:03.744Z,1.40
2023-04-12T09:58:51.812Z,1.52
2023-04-12T10:01:39.524Z,2.00
2023-04-12T10:04:25.523Z,1.75
2023-04-12T10:07:13.838Z,1.98
2023-04-12T10:10:01.460Z,1.40
2023-04-12T10:12:47.723Z,2.58
2023-04-12T10:15:34.748Z,1.60
2023-04-12T10:18:23.789Z,1.70
2023-04-12T10:21:08.844Z,1.60
2023-04-12T10:23:54.682Z,2.08
2023-04-12T10:26:41.940Z,1.58
2023-04-12T10:29:28.327Z,2.13
2023-04-12T10:32:23.063Z,1.83
2023-04-12T10:35:09.043Z,1.02
2023-04-12T10:38:01.191Z,1.33
2023-04-12T10:41:05.628Z,1.52
2023-04-12T10:43:51.455Z,1.13
2023-04-12T10:46:37.908Z,1.23
2023-04-12T10:49:23.187Z,1.75
2023-04-12T10:52:11.956Z,1.40
2023-04-12T10:54:57.312Z,1.70
2023-04-12T10:57:44.373Z,1.57
2023-04-12T11:00:48.253Z,1.80
2023-04-12T11:03:34.387Z,2.13
2023-04-12T11:06:26.425Z,2.17
2023-04-12T11:09:34.483Z,1.60
2023-04-12T11:12:21.076Z,1.10
2023-04-12T11:15:06.850Z,1.52
2023-04-12T11:18:11.218Z,1.52
2023-04-12T11:20:57.719Z,2.45
2023-04-12T11:23:43.484Z,1.95
2023-04-12T11:26:30.807Z,1.60
2023-04-12T11:29:22.819Z,1.85
2023-04-12T11:32:10.459Z,0.90
2023-04-12T11:34:56.805Z,1.58
2023-04-12T11:37:41.881Z,1.60
2023-04-12T11:40:27.464Z,1.20
2023-04-12T11:43:18.549Z,1.83
2023-04-12T11:46:03.914Z,2.03
2023-04-12T11:48:49.127Z,1.38
2023-04-12T11:51:35.753Z,1.75
2023-04-12T11:54:20.768Z,1.60
2023-04-12T11:57:06.039Z,1.70
2023-04-12T11:59:53.111Z,1.20
2023-04-12T12:02:45.870Z,2.33
2023-04-12T12:05:37.468Z,1.20
2023-04-12T12:08:24.639Z,1.40
2023-04-12T12:11:10.016Z,2.15
2023-04-12T12:13:55.759Z,1.63
2023-04-12T12:16:41.780Z,2.33
2023-04-12T12:19:28.182Z,1.75
2023-04-12T12:22:20.740Z,1.33
2023-04-12T12:25:06.753Z,1.13
2023-04-12T12:27:56.839Z,1.02
2023-04-12T12:30:42.338Z,1.60
2023-04-12T12:33:45.712Z,1.60
2023-04-12T12:36:42.248Z,1.77
2023-04-12T12:39:27.242Z,1.42
2023-04-12T12:42:12.298Z,1.65
2023-04-12T12:44:57.274Z,1.48
2023-04-12T12:47:50.767Z,1.67
2023-04-12T12:50:36.309Z,1.20
2023-04-12T12:53:24.282Z,1.05
2023-04-12T12:56:13.633Z,1.40
2023-04-12T12:58:58.683Z,1.23
2023-04-12T13:01:44.050Z,1.30
2023-04-12T13:04:29.339Z,1.77
2023-04-12T13:07:14.649Z,2.00
2023-04-12T13:09:59.799Z,1.60
2023-04-12T13:12:45.059Z,2.20
2023-04-12T13:15:30.014Z,1.52
2023-04-12T13:18:17.802Z,1.70
2023-04-12T13:21:02.875Z,1.75
2023-04-12T13:23:47.941Z,2.22
2023-04-12T13:26:32.817Z,1.55
2023-04-12T13:29:17.743Z,1.42
2023-04-12T13:32:03.557Z,1.67
2023-04-12T13:34:49.677Z,1.65
2023-04-12T13:37:34.892Z,1.25
2023-04-12T13:40:20.485Z,1.50
2023-04-12T13:43:07.575Z,1.50
2023-04-12T13:45:52.786Z,1.40
2023-04-12T13:48:37.837Z,1.13
2023-04-12T13:51:23.281Z,1.38
2023-04-12T13:54:08.648Z,1.55
2023-04-12T13:56:53.688Z,0.95
2023-04-12T13:59:38.634Z,1.60
2023-04-12T14:02:23.611Z,1.50
2023-04-12T14:05:09.202Z,2.05
2023-04-12T14:07:55.633Z,1.60
2023-04-12T14:10:40.481Z,1.65
2023-04-12T14:13:26.722Z,1.77
2023-04-12T14:16:12.084Z,1.30
2023-04-12T14:18:57.157Z,1.38
2023-04-12T14:21:42.235Z,1.80
2023-04-12T14:24:27.450Z,1.13
2023-04-12T14:27:12.747Z,1.83
2023-04-12T14:29:57.929Z,1.35
2023-04-12T14:32:44.004Z,1.30
2023-04-12T14:35:30.965Z,1.85
2023-04-12T14:38:15.980Z,1.38
2023-04-12T14:41:01.381Z,1.53
2023-04-12T14:43:46.911Z,1.50
2023-04-12T14:46:32.075Z,1.55
2023-04-12T14:49:17.617Z,1.40
2023-04-12T14:52:02.571Z,1.63
2023-04-12T14:54:47.742Z,1.33
2023-04-12T14:57:34.662Z,1.58
2023-04-12T15:00:20.343Z,0.90
2023-04-12T15:03:07.324Z,1.92
2023-04-12T15:05:52.797Z,1.50
2023-04-12T15:08:41.606Z,1.93
2023-04-12T15:11:27.487Z,2.55
2023-04-12T15:14:20.327Z,2.85
2023-04-12T15:17:05.618Z,2.83
2023-04-12T15:19:51.144Z,2.60
2023-04-12T15:22:36.573Z,3.27
2023-04-12T15:25:21.909Z,2.22
2023-04-12T15:28:06.800Z,2.47
2023-04-12T15:30:53.390Z,2.67
2023-04-12T15:33:38.504Z,2.33
2023-04-12T15:36:26.179Z,2.10
2023-04-12T15:39:12.461Z,1.83
2023-04-12T15:41:57.600Z,1.98
2023-04-12T15:44:43.090Z,1.95
2023-04-12T15:47:28.240Z,2.42
2023-04-12T15:50:14.365Z,2.20
2023-04-12T15:52:59.691Z,2.20
2023-04-12T15:55:45.230Z,2.13
2023-04-12T15:58:30.233Z,2.35
2023-04-12T16:01:15.052Z,2.20
2023-04-12T16:04:00.981Z,2.30
2023-04-12T16:06:46.606Z,2.72
2023-04-12T16:09:35.038Z,2.20
2023-04-12T16:12:20.196Z,2.47
2023-04-12T16:15:06.714Z,2.67
2023-04-12T16:17:56.042Z,3.03
2023-04-12T16:20:41.297Z,4.07
2023-04-12T16:23:27.808Z,4.78
2023-04-12T16:26:13.579Z,4.30
2023-04-12T16:28:59.561Z,3.60
2023-04-12T16:31:45.151Z,3.17
2023-04-12T16:34:31.530Z,3.15
2023-04-12T16:37:17.603Z,3.53
2023-04-12T16:40:06.692Z,2.50
2023-04-12T16:42:52.033Z,3.25
2023-04-12T16:45:37.401Z,3.13
2023-04-12T16:48:18.179Z,3.72
2023-04-12T16:51:03.537Z,2.72
2023-04-12T16:53:48.715Z,2.85
2023-04-12T16:56:34.216Z,2.95
2023-04-12T16:59:19.045Z,2.97
2023-04-12T17:02:04.085Z,2.65
2023-04-12T17:04:49.231Z,2.22
2023-04-12T17:07:34.393Z,2.88
2023-04-12T17:10:24.455Z,2.22
2023-04-12T17:13:10.079Z,2.73
2023-04-12T17:15:55.169Z,3.67
2023-04-12T17:18:43.255Z,2.53
2023-04-12T17:21:28.586Z,2.08
2023-04-12T17:24:14.303Z,2.35
2023-04-12T17:27:00.890Z,2.90
2023-04-12T17:29:46.098Z,3.35
2023-04-12T17:32:32.667Z,2.30
2023-04-12T17:35:18.196Z,2.53
2023-04-12T17:38:03.052Z,2.35
2023-04-12T17:40:48.467Z,3.10
2023-04-12T17:43:33.314Z,2.47
2023-04-12T17:46:18.240Z,2.67
2023-04-12T17:49:05.645Z,2.75
2023-04-12T17:51:51.111Z,2.17
2023-04-12T17:54:36.765Z,2.07
2023-04-12T17:57:22.312Z,2.88
2023-04-12T18:00:11.836Z,2.50
2023-04-12T18:03:00.511Z,1.85
2023-04-12T18:05:46.261Z,2.47
2023-04-12T18:08:31.142Z,2.33
2023-04-12T18:11:16.078Z,2.83
2023-04-12T18:14:01.057Z,2.42
2023-04-12T18:16:46.681Z,3.28
2023-04-12T18:19:31.722Z,3.10
2023-04-12T18:22:16.848Z,2.97
2023-04-12T18:25:02.207Z,2.63
2023-04-12T18:27:47.627Z,2.78
2023-04-12T18:30:33.211Z,2.15
2023-04-12T18:33:18.522Z,3.10
2023-04-12T18:36:04.494Z,2.53
2023-04-12T18:38:49.825Z,2.85
2023-04-12T18:41:34.615Z,2.15
2023-04-12T18:44:19.982Z,2.85
2023-04-12T18:47:04.864Z,2.80
2023-04-12T18:49:50.145Z,2.20
2023-04-12T18:52:35.220Z,3.45
2023-04-12T18:55:20.531Z,2.65
2023-04-12T18:58:05.508Z,3.00
2023-04-12T19:00:50.581Z,2.20
2023-04-12T19:03:35.980Z,2.30
2023-04-12T19:06:21.502Z,2.25
2023-04-12T19:09:06.601Z,3.10
2023-04-12T19:11:51.730Z,2.65
2023-04-12T19:14:36.826Z,1.95
2023-04-12T19:17:27.880Z,2.53
2023-04-12T19:20:13.351Z,2.55
2023-04-12T19:22:58.656Z,1.77
2023-04-12T19:25:43.813Z,2.63
2023-04-12T19:28:28.724Z,2.45
2023-04-12T19:31:14.237Z,3.47
2023-04-12T19:33:59.355Z,2.88
2023-04-12T19:36:44.621Z,2.20
2023-04-12T19:39:29.466Z,2.78
2023-04-12T19:42:15.811Z,2.42
2023-04-12T19:45:01.484Z,3.13
2023-04-12T19:47:46.438Z,2.20
2023-04-12T19:50:31.747Z,2.47
2023-04-12T19:53:18.145Z,2.95
2023-04-12T19:56:06.500Z,2.72
2023-04-12T19:58:54.503Z,3.07
2023-04-12T20:01:48.996Z,2.47
2023-04-12T20:04:34.614Z,1.70
2023-04-12T20:07:19.833Z,2.63
2023-04-12T20:10:06.183Z,1.73
2023-04-12T20:12:51.433Z,2.43
2023-04-12T20:15:38.897Z,2.72
2023-04-12T20:18:24.360Z,2.13
2023-04-12T20:21:10.181Z,2.40
2023-04-12T20:23:55.292Z,2.40
2023-04-12T20:26:40.469Z,2.10
2023-04-12T20:29:25.695Z,2.30
2023-04-12T20:32:13.302Z,2.95
2023-04-12T20:34:59.026Z,2.58
2023-04-12T20:37:43.945Z,2.58
2023-04-12T20:40:29.862Z,2.20
2023-04-12T20:43:15.634Z,2.10
2023-04-12T20:46:00.865Z,3.22
2023-04-12T20:48:47.359Z,2.20
2023-04-12T20:51:32.872Z,2.05
2023-04-12T20:54:18.476Z,2.77
2023-04-12T20:57:06.686Z,1.73
2023-04-12T20:59:52.542Z,2.00
2023-04-12T21:02:38.742Z,2.20
2023-04-12T21:05:24.279Z,2.60
2023-04-12T21:08:09.160Z,2.47
2023-04-12T21:10:54.025Z,2.05
2023-04-12T21:13:38.937Z,2.70
2023-04-12T21:16:25.307Z,2.53
2023-04-12T21:19:10.570Z,2.25
2023-04-12T21:21:55.465Z,2.30
2023-04-12T21:24:40.390Z,2.10
2023-04-12T21:27:25.296Z,2.10
2023-04-12T21:30:11.206Z,2.45
2023-04-12T21:32:56.604Z,1.77
2023-04-12T21:35:41.521Z,1.87
2023-04-12T21:38:26.396Z,1.95
2023-04-12T21:41:12.441Z,2.00
2023-04-12T21:43:57.159Z,2.15
2023-04-12T21:46:42.032Z,1.90
2023-04-12T21:49:27.094Z,2.13
2023-04-12T21:52:11.972Z,2.20
2023-04-12T21:54:56.974Z,2.80
2023-04-12T21:57:42.112Z,2.10
2023-04-12T22:00:28.241Z,2.35
2023-04-12T22:03:13.660Z,1.93
2023-04-12T22:06:04.150Z,3.35
2023-04-12T22:08:49.594Z,2.63
2023-04-12T22:11:34.276Z,1.92
2023-04-12T22:14:19.344Z,2.30
2023-04-12T22:17:05.924Z,2.33
2023-04-12T22:19:51.559Z,3.00
2023-04-12T22:22:39.939Z,2.40
2023-04-12T22:25:25.156Z,2.25
2023-04-12T22:28:11.573Z,1.70
2023-04-12T22:30:57.063Z,2.23
2023-04-12T22:33:42.533Z,2.38
2023-04-12T22:36:29.476Z,1.65
2023-04-12T22:39:15.572Z,2.55
2023-04-12T22:42:00.592Z,2.00
2023-04-12T22:44:45.616Z,2.17
2023-04-12T22:47:30.634Z,2.47
2023-04-12T22:50:15.950Z,2.92
2023-04-12T22:53:02.874Z,2.20
2023-04-12T22:55:48.594Z,1.95
2023-04-12T22:58:34.511Z,2.80
2023-04-12T23:48:27.992Z,2.00
2023-04-12T23:51:13.935Z,2.17
2023-04-12T23:53:59.305Z,2.28
2023-04-12T23:56:44.359Z,1.95
2023-04-12T23:59:29.269Z,1.90
